Latest Weather Observations for Holsworthy

IDN60901

Issued at 9:31 pm EDT Monday 17 December 2018 (issued every 10 minutes, with the page automatically refreshed every 10 minutes)

About weather observations | Map of Sydney area stations | Latest observations for Sydney area | Other Formats
Station Details ID: 066161 Name: HOLSWORTHY AERODROME AWS Lat: -33.99 Lon: 150.95 Height: 68.16 m
Data from the previous 72 hours. | See also: Recent months at Holsworthy
Date/Time
EDT
Temp
°C
App
Temp
°C
Dew
Point
°C
Rel
Hum
%
Delta-T
°C
Wind Press
QNH
hPa
Press
MSL
hPa
Rain since
9am
mm
Dir  Spd
km/h
Gust
km/h
Spd
kts
Gust
kts
17/09:30pm 22.4 23.7 19.4 83 1.9 SE 11 15 6 8 1011.6 1011.4 0.0
17/09:00pm 22.8 23.7 19.2 80 2.3 SE 13 17 7 9 1011.2 1011.0 0.0
17/08:30pm 23.4 23.9 19.3 78 2.6 SE 15 20 8 11 1010.9 1010.7 0.0
17/08:00pm 24.5 25.7 19.1 72 3.5 ESE 11 15 6 8 1010.5 1010.3 0.0
17/07:30pm 25.2 25.8 18.6 67 4.2 ESE 13 19 7 10 1010.0 1009.7 0.0
17/07:00pm 26.2 26.4 18.6 63 4.9 ESE 15 19 8 10 1009.5 1009.2 0.0
17/06:30pm 27.0 27.5 18.3 59 5.5 ESE 13 20 7 11 1009.0 1008.7 0.0
17/06:00pm 27.5 27.1 17.1 53 6.5 ESE 15 24 8 13 1008.7 1008.4 0.0
17/05:30pm 27.7 26.6 16.3 49 7.1 E 17 30 9 16 1008.3 1008.0 0.0
17/05:00pm 28.3 26.3 15.6 46 7.8 E 20 30 11 16 1008.1 1007.8 0.0
17/04:30pm 27.7 24.3 14.7 45 7.9 E 26 33 14 18 1007.8 1007.5 0.0
17/04:00pm 28.5 24.3 12.4 37 9.4 E 26 35 14 19 1007.8 1007.5 0.0
17/03:30pm 28.9 25.3 11.9 35 9.9 E 22 30 12 16 1008.0 1007.7 0.0
17/03:00pm 29.2 25.6 13.0 37 9.6 ENE 24 33 13 18 1008.1 1007.8 0.0
17/02:30pm 30.0 27.0 12.0 33 10.5 ENE 19 30 10 16 1008.1 1007.8 0.0
17/02:00pm 30.5 27.4 11.5 31 11.1 ENE 19 28 10 15 1008.3 1008.0 0.0
17/01:30pm 30.2 25.8 7.4 24 12.4 E 20 28 11 15 1008.3 1008.0 0.0
17/01:00pm 30.6 30.1 17.0 44 8.6 ENE 15 20 8 11 1008.5 1008.2 0.0
17/12:30pm 29.8 29.7 15.9 43 8.6 NNE 11 24 6 13 1008.7 1008.4 0.0
17/12:00pm 29.4 29.2 16.6 46 8.0 ENE 13 22 7 12 1009.0 1008.7 0.0
17/11:30am 29.1 29.9 17.3 49 7.5 ENE 9 17 5 9 1009.3 1009.0 0.0
17/11:00am 28.3 29.0 16.2 47 7.5 SE 7 15 4 8 1009.6 1009.3 0.0
17/10:30am 27.8 28.5 17.0 51 6.8 ENE 9 17 5 9 1009.7 1009.4 0.0
17/10:00am 27.2 28.0 17.4 55 6.2 SSE 9 13 5 7 1009.8 1009.5 0.0
17/09:30am 26.1 28.0 18.5 63 4.8 ESE 6 11 3 6 1009.8 1009.5 0.0
17/09:00am 25.8 27.9 19.0 66 4.4 SW 6 13 3 7 1009.8 1009.5 0.0
17/08:30am 24.0 25.7 18.6 72 3.4 SW 7 13 4 7 1009.8 1009.5 0.0
17/08:00am 22.6 23.7 17.9 75 2.9 W 9 11 5 6 1009.7 1009.4 0.0
17/07:30am 21.0 22.7 18.6 86 1.5 W 7 9 4 5 1009.4 1009.1 0.0
17/07:00am 20.3 22.3 18.8 91 0.9 W 6 9 3 5 1009.0 1008.7 0.0
17/06:30am 19.5 22.5 18.5 94 0.6 CALM 0 0 0 0 1008.5 1008.2 0.0
17/06:00am 18.8 21.5 17.8 94 0.6 CALM 0 0 0 0 1008.1 1007.8 0.0
17/05:30am 19.5 22.7 18.8 96 0.4 CALM 0 6 0 3 1007.8 1007.5 0.0
17/05:00am 19.2 20.9 18.4 95 0.5 SW 7 9 4 5 1007.5 1007.2 0.0
17/04:30am 19.4 22.3 18.2 93 0.7 CALM 0 0 0 0 1007.2 1006.9 0.0
17/04:00am 20.0 23.1 18.7 92 0.8 CALM 0 0 0 0 1007.1 1006.8 0.0
17/03:30am 20.2 23.3 18.7 91 0.9 CALM 0 0 0 0 1006.9 1006.6 0.0
17/03:00am 21.0 23.1 19.3 90 1.1 SSE 7 9 4 5 1006.7 1006.4 0.0
17/02:30am 21.2 22.5 19.3 89 1.2 SE 11 11 6 6 1006.7 1006.4 0.0
17/02:00am 21.5 22.8 19.4 88 1.3 S 11 13 6 7 1007.0 1006.7 0.0
17/01:30am 21.5 22.9 19.6 89 1.2 SE 11 13 6 7 1007.0 1006.7 0.0
17/01:00am 21.9 24.1 19.6 87 1.5 SE 7 11 4 6 1007.0 1006.7 0.0
17/12:30am 22.2 23.4 19.9 87 1.5 SSE 13 15 7 8 1007.1 1006.8 0.0
17/12:00am 22.8 25.2 20.0 84 1.8 E 7 9 4 5 1007.0 1006.7 0.0
 
Date/Time
EDT
Temp
°C
App
Temp
°C
Dew
Point
°C
Rel
Hum
%
Delta-T
°C
Wind Press
QNH
hPa
Press
MSL
hPa
Rain since
9am
mm
Dir  Spd
km/h
Gust
km/h
Spd
kts
Gust
kts
16/11:30pm 22.8 24.9 20.1 85 1.7 E 9 13 5 7 1007.3 1007.0 0.0
16/11:00pm 23.0 25.4 20.1 84 1.9 E 7 11 4 6 1007.2 1006.9 0.0
16/10:30pm 23.1 25.5 20.1 83 1.9 E 7 11 4 6 1007.1 1006.8 0.0
16/10:00pm 23.3 25.7 20.1 82 2.1 ENE 7 11 4 6 1006.8 1006.5 0.0
16/09:30pm 23.9 25.5 20.0 79 2.5 ENE 11 13 6 7 1006.7 1006.4 0.0
16/09:00pm 24.3 26.3 20.0 77 2.8 ENE 9 11 5 6 1006.4 1006.1 0.0
16/08:30pm 24.6 26.6 19.9 75 3.0 ENE 9 13 5 7 1006.5 1006.2 0.0
16/08:00pm 25.3 25.8 19.2 69 3.9 E 15 19 8 10 1006.2 1005.9 0.0
16/07:30pm 25.6 25.7 17.5 61 5.1 SSE 13 15 7 8 1005.9 1005.6 0.0
16/07:00pm 26.4 26.2 17.7 58 5.5 S 15 22 8 12 1005.6 1005.3 0.0
16/06:30pm 27.0 25.1 16.6 53 6.5 NE 22 39 12 21 1004.2 1003.9 0.0
16/06:00pm 27.9 26.7 18.3 56 6.2 NE 22 37 12 20 1003.9 1003.6 0.0
16/05:30pm 27.8 27.5 19.6 61 5.3 NE 20 35 11 19 1004.0 1003.7 0.0
16/05:00pm 28.0 27.9 20.8 65 4.8 ENE 22 33 12 18 1004.3 1004.0 0.0
16/04:50pm 27.3 26.2 21.1 69 4.1 ENE 28 46 15 25 1004.3 1004.0 0.0
16/04:30pm 28.2 26.9 20.7 63 5.0 ENE 28 41 15 22 1004.3 1004.0 0.0
16/04:00pm 29.4 28.7 21.1 61 5.6 ENE 26 39 14 21 1004.1 1003.8 0.0
16/03:30pm 29.8 28.0 19.5 54 6.7 ENE 28 43 15 23 1004.6 1004.3 0.0
16/03:00pm 30.7 29.4 19.1 50 7.6 ENE 24 35 13 19 1004.8 1004.5 0.0
16/02:30pm 30.7 29.4 20.6 54 6.7 ENE 28 44 15 24 1004.9 1004.6 0.0
16/02:00pm 30.8 30.0 20.1 53 7.1 ENE 24 35 13 19 1005.1 1004.8 0.0
16/01:30pm 30.2 29.3 19.9 54 6.8 ENE 24 33 13 18 1005.4 1005.1 0.0
16/01:00pm 30.8 31.9 20.4 54 6.9 NE 15 28 8 15 1005.8 1005.5 0.0
16/12:30pm 30.9 30.4 16.9 43 8.9 NE 15 26 8 14 1006.3 1006.0 0.0
16/12:00pm 29.7 30.8 18.8 52 7.1 ENE 11 19 6 10 1006.9 1006.6 0.0
16/11:30am 28.6 30.5 19.8 59 5.8 NNE 9 15 5 8 1007.1 1006.8 0.0
16/11:00am 27.4 29.3 19.7 63 5.0 N 9 15 5 8 1007.3 1007.0 0.0
16/10:30am 26.1 28.8 20.2 70 3.9 NNW 6 9 3 5 1007.7 1007.4 0.0
16/10:00am 25.0 26.8 19.6 72 3.5 N 9 17 5 9 1008.0 1007.7 0.0
16/09:30am 24.5 27.0 21.0 81 2.3 NNW 9 13 5 7 1008.2 1007.9 0.0
16/09:00am 22.9 25.0 20.1 84 1.8 NNE 9 15 5 8 1008.4 1008.1 14.4
16/08:33am 22.4 25.1 20.7 90 1.1 N 7 13 4 7 1008.4 1008.1 14.4
16/08:30am 22.2 24.8 20.5 90 1.1 NNW 7 13 4 7 1008.4 1008.1 14.4
16/08:00am 21.4 24.2 20.4 94 0.6 N 6 9 3 5 1008.2 1007.9 14.4
16/07:30am 21.0 23.9 20.7 98 0.2 NNE 6 9 3 5 1007.8 1007.5 14.4
16/07:26am 20.9 23.6 20.6 98 0.2 NNE 7 9 4 5 1007.7 1007.4 14.4
16/07:00am 20.4 23.1 20.2 99 0.1 ENE 6 9 3 5 1007.3 1007.0 14.4
16/06:54am 20.4 22.9 20.2 99 0.1 ENE 7 9 4 5 1007.2 1006.9 14.4
16/06:50am 20.3 22.7 20.1 99 0.1 ENE 7 11 4 6 1007.2 1006.9 14.4
16/06:35am 20.0 21.9 19.7 98 0.2 ENE 9 11 5 6 1006.9 1006.6 14.4
16/06:30am 19.9 21.7 19.6 98 0.2 ENE 9 11 5 6 1006.9 1006.6 14.4
16/06:27am 19.9 22.1 19.6 98 0.2 E 7 11 4 6 1006.8 1006.5 14.4
16/06:19am 19.9 23.0 19.4 97 0.3 WSW 2 7 1 4 1006.7 1006.4 14.4
16/06:00am 19.7 23.0 19.2 97 0.3 CALM 0 0 0 0 1006.7 1006.4 14.4
16/05:55am 19.7 22.7 19.2 97 0.3 WSW 2 6 1 3 1006.6 1006.3 14.4
16/05:30am 19.9 23.3 19.4 97 0.3 CALM 0 6 0 3 1006.7 1006.4 14.4
16/05:00am 20.0 22.3 19.5 97 0.3 ESE 6 7 3 4 1006.1 1005.8 14.4
16/04:30am 20.0 21.8 19.5 97 0.3 SW 9 11 5 6 1006.0 1005.7 14.4
16/04:00am 20.3 23.0 19.5 95 0.5 WSW 4 9 2 5 1005.7 1005.4 14.4
16/03:30am 20.9 23.3 19.7 93 0.8 ESE 6 9 3 5 1005.5 1005.2 14.4
16/03:00am 21.5 24.0 20.3 93 0.8 ENE 7 9 4 5 1006.0 1005.7 14.4
16/02:30am 21.7 23.7 20.0 90 1.1 E 9 11 5 6 1006.1 1005.8 14.4
16/02:00am 22.0 24.0 19.9 88 1.4 ENE 9 11 5 6 1006.0 1005.7 14.4
16/01:30am 22.5 24.8 19.9 85 1.7 NE 7 11 4 6 1006.0 1005.7 14.4
16/01:00am 22.4 25.0 20.5 89 1.2 NE 7 9 4 5 1006.5 1006.2 14.4
16/12:30am 21.7 24.6 20.7 94 0.6 S 6 7 3 4 1006.8 1006.5 14.4
16/12:00am 21.6 24.8 20.6 94 0.7 SE 4 7 2 4 1006.7 1006.4 14.4
 
Date/Time
EDT
Temp
°C
App
Temp
°C
Dew
Point
°C
Rel
Hum
%
Delta-T
°C
Wind Press
QNH
hPa
Press
MSL
hPa
Rain since
9am
mm
Dir  Spd
km/h
Gust
km/h
Spd
kts
Gust
kts
15/11:30pm 21.4 25.4 20.6 95 0.5 CALM 0 0 0 0 1006.8 1006.5 14.4
15/11:00pm 21.1 24.6 20.3 95 0.5 SW 2 6 1 3 1006.9 1006.6 14.4
15/10:30pm 21.4 24.6 20.4 94 0.6 NE 4 7 2 4 1006.9 1006.6 14.4
15/10:00pm 21.7 25.2 20.3 92 0.9 ENE 2 7 1 4 1006.8 1006.5 14.4
15/09:30pm 21.8 24.3 20.3 91 1.0 ENE 7 9 4 5 1006.5 1006.2 14.4
15/09:00pm 21.8 25.6 20.1 90 1.1 CALM 0 2 0 1 1006.3 1006.0 14.4
15/08:41pm 21.8 24.4 20.1 90 1.1 ENE 6 9 3 5 1006.3 1006.0 14.4
15/08:30pm 21.9 23.2 20.2 90 1.1 ENE 13 22 7 12 1006.2 1005.9 14.4
15/08:00pm 22.7 24.7 21.5 93 0.8 NE 13 19 7 10 1006.2 1005.9 14.4
15/07:49pm 22.5 24.6 21.0 91 1.0 ENE 11 15 6 8 1005.9 1005.6 14.4
15/07:30pm 22.3 24.3 20.0 87 1.5 ESE 9 20 5 11 1005.5 1005.2 14.4
15/07:29pm 22.2 24.1 19.7 86 1.6 ESE 9 13 5 7 1005.6 1005.3 14.2
15/07:28pm 22.2 24.2 19.9 87 1.5 ESE 9 13 5 7 1005.6 1005.3 14.2
15/07:00pm 22.0 22.9 19.2 84 1.8 ESE 13 15 7 8 1005.7 1005.4 14.2
15/06:30pm 21.7 24.1 19.6 88 1.3 SW 6 9 3 5 1004.4 1004.1 14.2
15/06:00pm 20.4 22.5 18.9 91 0.9 NE 6 11 3 6 1004.5 1004.2 14.2
15/05:33pm 21.0 17.0 18.6 86 1.5 NNE 37 72 20 39 1006.3 1006.0 11.4
15/05:31pm 22.1 19.3 19.5 85 1.7 NNE 33 72 18 39 1006.2 1005.9 10.6
15/05:30pm 22.4 20.3 19.8 85 1.7 NNE 30 72 16 39 1006.2 1005.9 10.4
15/05:29pm 22.6 20.9 19.8 84 1.8 NNE 28 72 15 39 1005.8 1005.5 10.2
15/05:25pm 23.0 24.2 22.2 95 0.5 NNE 19 30 10 16 1005.7 1005.4 10.0
15/05:14pm 22.4 23.2 21.4 94 0.7 ENE 19 26 10 14 1003.7 1003.4 10.0
15/05:00pm 22.0 20.2 20.3 90 1.1 E 30 57 16 31 1001.7 1001.4 10.0
15/04:58pm 21.9 19.3 20.0 89 1.2 ENE 33 57 18 31 1001.6 1001.3 9.8
15/04:47pm 24.4 22.3 20.9 81 2.3 ENE 33 56 18 30 1003.9 1003.6 1.2
15/04:43pm 25.7 24.4 20.7 74 3.3 ENE 28 52 15 28 1003.6 1003.3 0.4
15/04:30pm 27.5 27.6 21.1 68 4.3 E 22 33 12 18 1002.9 1002.6 0.2
15/04:00pm 28.0 28.1 21.8 69 4.2 ESE 24 35 13 19 1003.4 1003.1 0.2
15/03:30pm 28.1 28.6 21.9 69 4.2 E 22 32 12 17 1004.2 1003.9 0.2
15/03:00pm 27.7 28.0 21.5 69 4.2 E 22 30 12 16 1004.4 1004.1 0.2
15/02:30pm 28.1 28.2 20.4 63 5.1 E 20 26 11 14 1004.7 1004.4 0.2
15/02:00pm 28.5 29.1 21.3 65 4.8 ESE 20 28 11 15 1004.9 1004.6 0.2
15/01:30pm 27.5 28.7 21.5 70 4.0 SE 17 22 9 12 1005.7 1005.4 0.2
15/01:00pm 28.0 29.6 22.2 70 3.9 E 17 26 9 14 1006.0 1005.7 0.2
15/12:30pm 27.6 29.3 20.9 67 4.4 E 13 20 7 11 1006.1 1005.8 0.2
15/12:00pm 27.8 29.9 20.1 63 5.1 N 9 15 5 8 1006.7 1006.4 0.2
15/11:30am 26.7 28.2 20.5 69 4.1 NNE 13 20 7 11 1007.4 1007.1 0.2
15/11:00am 26.5 29.0 21.0 72 3.6 NE 9 13 5 7 1007.3 1007.0 0.2
15/10:30am 25.6 27.9 20.6 74 3.3 NE 9 17 5 9 1007.7 1007.4 0.2
15/10:00am 25.0 28.0 21.3 80 2.5 NE 7 11 4 6 1007.7 1007.4 0.2
15/09:43am 23.9 26.2 20.6 82 2.2 NNE 9 13 5 7 1007.8 1007.5 0.0
15/09:30am 23.5 25.7 20.4 83 2.0 N 9 13 5 7 1007.6 1007.3 0.0
15/09:22am 23.5 25.9 20.8 85 1.8 N 9 13 5 7 1007.6 1007.3 0.0
15/09:10am 23.3 26.6 21.4 89 1.3 NE 6 9 3 5 1007.8 1007.5 0.0
15/09:00am 23.0 26.0 21.3 90 1.1 NE 7 9 4 5 1007.8 1007.5 22.2
15/08:30am 22.6 25.6 21.2 92 0.9 ENE 7 9 4 5 1007.5 1007.2 22.2
15/08:21am 22.7 25.8 21.5 93 0.8 NE 7 9 4 5 1007.4 1007.1 22.2
15/08:00am 22.5 25.9 21.7 95 0.5 ENE 6 9 3 5 1007.3 1007.0 22.2
15/07:30am 21.9 25.2 21.4 97 0.3 ESE 6 9 3 5 1006.5 1006.2 22.2
15/07:14am 21.6 24.3 21.3 98 0.2 SE 9 13 5 7 1006.2 1005.9 22.2
15/07:00am 21.4 24.3 21.1 98 0.2 SE 7 11 4 6 1006.2 1005.9 22.2
15/06:39am 21.1 23.9 20.8 98 0.2 ESE 7 9 4 5 1006.0 1005.7 22.2
15/06:30am 21.0 24.0 20.8 99 0.1 ESE 6 7 3 4 1005.7 1005.4 22.2
15/06:00am 20.8 23.1 20.6 99 0.1 SE 9 11 5 6 1005.3 1005.0 22.2
15/05:30am 20.8 23.0 20.5 98 0.2 ESE 9 11 5 6 1005.0 1004.7 22.2
15/05:00am 21.0 23.7 20.7 98 0.2 SE 7 9 4 5 1004.9 1004.6 22.2
15/04:49am 21.1 23.9 20.8 98 0.2 SSE 7 9 4 5 1004.8 1004.5 22.2
15/04:30am 21.1 23.9 20.9 99 0.1 ESE 7 9 4 5 1004.8 1004.5 22.2
15/04:18am 21.2 23.7 21.0 99 0.1 SE 9 11 5 6 1004.6 1004.3 22.2
15/04:00am 21.2 23.7 21.0 99 0.1 SE 9 11 5 6 1004.5 1004.2 22.2
15/03:30am 21.1 23.5 20.9 99 0.1 SE 9 13 5 7 1004.3 1004.0 22.2
15/03:00am 21.0 23.9 20.7 98 0.2 SE 6 7 3 4 1004.4 1004.1 22.2
15/02:52am 20.9 23.6 20.6 98 0.2 SE 7 7 4 4 1004.5 1004.2 22.2
15/02:30am 20.8 24.8 20.5 98 0.2 CALM 0 6 0 3 1004.5 1004.2 22.2
15/02:06am 20.9 24.5 20.6 98 0.2 SE 2 6 1 3 1004.3 1004.0 22.2
15/02:01am 20.9 24.5 20.6 98 0.2 SSE 2 6 1 3 1004.4 1004.1 22.2
15/02:00am 20.9 24.5 20.6 98 0.2 SSE 2 6 1 3 1004.4 1004.1 22.2
15/01:49am 20.8 24.8 20.5 98 0.2 CALM 0 0 0 0 1004.5 1004.2 22.2
15/01:30am 20.7 23.9 20.4 98 0.2 WSW 4 7 2 4 1004.7 1004.4 22.2
15/01:00am 20.7 24.1 20.2 97 0.3 SSW 2 7 1 4 1004.7 1004.4 22.2
15/12:38am 20.7 23.8 20.2 97 0.3 SSW 4 6 2 3 1005.2 1004.9 22.2
15/12:30am 20.8 23.9 20.3 97 0.3 SE 4 6 2 3 1005.2 1004.9 22.2
15/12:23am 21.0 24.2 20.5 97 0.3 ESE 4 6 2 3 1005.2 1004.9 22.2
15/12:12am 20.9 23.7 20.4 97 0.3 ESE 6 9 3 5 1005.3 1005.0 22.2
15/12:00am 21.0 23.6 20.5 97 0.3 E 7 11 4 6 1005.3 1005.0 22.2
 
Date/Time
EDT
Temp
°C
App
Temp
°C
Dew
Point
°C
Rel
Hum
%
Delta-T
°C
Wind Press
QNH
hPa
Press
MSL
hPa
Rain since
9am
mm
Dir  Spd
km/h
Gust
km/h
Spd
kts
Gust
kts
14/11:32pm 20.9 23.5 20.4 97 0.3 SW 7 9 4 5 1005.5 1005.2 22.2
14/11:30pm 20.9 23.5 20.4 97 0.3 SW 7 9 4 5 1005.5 1005.2 22.2
14/11:00pm 21.0 23.5 20.3 96 0.5 WNW 7 9 4 5 1005.4 1005.1 22.2
14/10:30pm 21.1 24.2 20.3 95 0.5 S 4 7 2 4 1006.0 1005.7 22.2
14/10:00pm 21.1 23.8 20.3 95 0.5 WSW 6 9 3 5 1006.1 1005.8 22.2

Latest Capital City Observations: Canberra | Sydney | Melbourne | Brisbane | Adelaide | Perth | Hobart | Darwin

Other Formats:

Comma delimited format used in spreadsheet applications
http://www.bom.gov.au/fwo/IDN60901/IDN60901.95761.axf

JavaScript Object Notation format (JSON) in row-major order
http://www.bom.gov.au/fwo/IDN60901/IDN60901.95761.json